Hovedside
METAR-TAF:

METAR-TAF

Lufthavner :

Larnaka internasjonale lufthavn

Larnaka, Kypros

breddegrad: 34-53N, lengdegrad: 033-38E, høyde over havet: 2 m

Gjeldene værobservasjon

Denne rapporten ble laget for 35 minutter siden, klokken 19:00 UTC
Vind 5 kt fra Sør-sørvest
Temperatur 28°C
Luftfuktighet 79%
Trykk 1005 hPa
Sikt 10 km eller mer
ingen skyer under 1500 m og ingen bygeskyer

METAR: LCLK 131900Z 21005KT CAVOK 28/24 Q1005 NOSIG

Tid: 22:35 (19:35 UTC)

Varsel

Denne rapporten ble laget for 2 timer og 5 minutter siden, klokken 17:30 UTC
Varsel gyldig fra 13. klokken 18 UTC til 14. klokken 18 UTC
Vind 7 kt fra Vest-nordvest
Sikt 10 km eller mer
ingen skyer under 1500 m og ingen bygeskyer
Sannsynlighet 30% :
Midlertidig
fra 13. klokken 20 UTC til 14. klokken 05 UTC
Sikt: 5000 m
Brutte skyer i en høyde av 600 ft
dis
Blir
fra 14. klokken 08 UTC til 14. klokken 12 UTC
Vind 12 kt fra Sør

TAF: LCLK 131730Z 1318/1418 30007KT CAVOK PROB30 TEMPO 1320/1405 5000 BR BKN006 BECMG 1408/1412 18012KT

Værobservasjoner og værvarsel for over 4000 flyplasser (METAR- og TAF-rapporter).

Tilgjengelige stasjoner er representert av de røde og gule prikkene på kartet.

Hold musepekeren over prikken for å se navnet på stasjonen.

Klikk så for å se værobservasjoner og -varsler.

For å forandre kartet kan du klikke på den grønne knappen med svart kryss for å zoome inn, på den grønne knappen med strek for å zoome ut, eller på de grønne pilene for å se tilstøtende kart.


METAR-TAF: